sensor_id;sensor_type;location;lat;lon;timestamp;temperature;humidity
24664;DHT22;12791;50.992;13.788;2023-03-11T00:00:25;5.80;99.90
24664;DHT22;12791;50.992;13.788;2023-03-11T00:02:57;5.70;99.90
24664;DHT22;12791;50.992;13.788;2023-03-11T00:05:26;5.40;99.90
24664;DHT22;12791;50.992;13.788;2023-03-11T00:07:53;5.30;99.90
24664;DHT22;12791;50.992;13.788;2023-03-11T00:10:23;5.10;99.90
24664;DHT22;12791;50.992;13.788;2023-03-11T00:12:50;5.00;99.90
24664;DHT22;12791;50.992;13.788;2023-03-11T00:15:18;5.00;99.90
24664;DHT22;12791;50.992;13.788;2023-03-11T00:17:46;5.20;99.90
24664;DHT22;12791;50.992;13.788;2023-03-11T00:20:17;4.40;99.90
24664;DHT22;12791;50.992;13.788;2023-03-11T00:22:46;4.90;99.90
24664;DHT22;12791;50.992;13.788;2023-03-11T00:25:13;4.80;99.90
24664;DHT22;12791;50.992;13.788;2023-03-11T00:27:40;4.70;99.90
24664;DHT22;12791;50.992;13.788;2023-03-11T00:30:08;4.90;99.90
24664;DHT22;12791;50.992;13.788;2023-03-11T00:32:36;4.60;99.90
24664;DHT22;12791;50.992;13.788;2023-03-11T00:35:03;4.60;99.90
24664;DHT22;12791;50.992;13.788;2023-03-11T00:37:29;4.60;99.90
24664;DHT22;12791;50.992;13.788;2023-03-11T00:39:56;4.60;99.90
24664;DHT22;12791;50.992;13.788;2023-03-11T00:42:23;4.50;99.90
24664;DHT22;12791;50.992;13.788;2023-03-11T00:44:49;4.50;99.90
24664;DHT22;12791;50.992;13.788;2023-03-11T00:47:16;4.20;99.90
24664;DHT22;12791;50.992;13.788;2023-03-11T00:49:45;4.30;99.90
24664;DHT22;12791;50.992;13.788;2023-03-11T00:52:11;4.60;99.90
24664;DHT22;12791;50.992;13.788;2023-03-11T00:54:38;4.50;99.90
24664;DHT22;12791;50.992;13.788;2023-03-11T00:57:04;4.40;99.90
24664;DHT22;12791;50.992;13.788;2023-03-11T00:59:33;4.20;99.90
24664;DHT22;12791;50.992;13.788;2023-03-11T01:01:59;4.20;99.90
24664;DHT22;12791;50.992;13.788;2023-03-11T01:04:26;4.20;99.90
24664;DHT22;12791;50.992;13.788;2023-03-11T01:06:54;4.20;99.90
24664;DHT22;12791;50.992;13.788;2023-03-11T01:09:20;3.90;99.90
24664;DHT22;12791;50.992;13.788;2023-03-11T01:11:47;3.90;99.90
24664;DHT22;12791;50.992;13.788;2023-03-11T01:14:14;3.50;99.90
24664;DHT22;12791;50.992;13.788;2023-03-11T01:16:40;3.80;99.90
24664;DHT22;12791;50.992;13.788;2023-03-11T01:19:07;3.80;99.90
24664;DHT22;12791;50.992;13.788;2023-03-11T01:21:33;3.70;99.90
24664;DHT22;12791;50.992;13.788;2023-03-11T01:24:01;3.30;99.90
24664;DHT22;12791;50.992;13.788;2023-03-11T01:26:28;3.80;99.90
24664;DHT22;12791;50.992;13.788;2023-03-11T01:28:54;3.60;99.90
24664;DHT22;12791;50.992;13.788;2023-03-11T01:31:21;3.60;99.90
24664;DHT22;12791;50.992;13.788;2023-03-11T01:33:48;3.60;99.90
24664;DHT22;12791;50.992;13.788;2023-03-11T01:36:14;3.80;99.90
24664;DHT22;12791;50.992;13.788;2023-03-11T01:38:41;3.60;99.90
24664;DHT22;12791;50.992;13.788;2023-03-11T01:41:10;3.40;99.90
24664;DHT22;12791;50.992;13.788;2023-03-11T01:43:45;3.40;99.90
24664;DHT22;12791;50.992;13.788;2023-03-11T01:46:16;3.60;99.90
24664;DHT22;12791;50.992;13.788;2023-03-11T01:48:45;3.40;99.90
24664;DHT22;12791;50.992;13.788;2023-03-11T01:51:12;3.20;99.90
24664;DHT22;12791;50.992;13.788;2023-03-11T01:53:39;2.90;99.90
24664;DHT22;12791;50.992;13.788;2023-03-11T01:56:06;3.30;99.90
24664;DHT22;12791;50.992;13.788;2023-03-11T01:58:37;3.40;99.90
24664;DHT22;12791;50.992;13.788;2023-03-11T02:01:05;3.40;99.90
24664;DHT22;12791;50.992;13.788;2023-03-11T02:03:33;3.30;99.90
24664;DHT22;12791;50.992;13.788;2023-03-11T02:06:04;3.30;99.90
24664;DHT22;12791;50.992;13.788;2023-03-11T02:08:32;3.40;99.90
24664;DHT22;12791;50.992;13.788;2023-03-11T02:11:00;3.40;99.90
24664;DHT22;12791;50.992;13.788;2023-03-11T02:13:27;3.30;99.90
24664;DHT22;12791;50.992;13.788;2023-03-11T02:15:56;3.30;99.90
24664;DHT22;12791;50.992;13.788;2023-03-11T02:18:25;3.30;99.90
24664;DHT22;12791;50.992;13.788;2023-03-11T02:20:56;3.30;99.90
24664;DHT22;12791;50.992;13.788;2023-03-11T02:23:27;3.20;99.90
24664;DHT22;12791;50.992;13.788;2023-03-11T02:26:00;3.30;99.90
24664;DHT22;12791;50.992;13.788;2023-03-11T02:28:32;3.30;99.90
24664;DHT22;12791;50.992;13.788;2023-03-11T02:31:00;3.20;99.90
24664;DHT22;12791;50.992;13.788;2023-03-11T02:33:29;3.20;99.90
24664;DHT22;12791;50.992;13.788;2023-03-11T02:35:56;3.10;99.90
24664;DHT22;12791;50.992;13.788;2023-03-11T02:38:23;3.10;99.90
24664;DHT22;12791;50.992;13.788;2023-03-11T02:40:53;2.60;99.90
24664;DHT22;12791;50.992;13.788;2023-03-11T02:43:23;3.10;99.90
24664;DHT22;12791;50.992;13.788;2023-03-11T02:45:52;3.20;99.90
24664;DHT22;12791;50.992;13.788;2023-03-11T02:48:20;2.90;99.90
24664;DHT22;12791;50.992;13.788;2023-03-11T02:50:48;3.10;99.90
24664;DHT22;12791;50.992;13.788;2023-03-11T02:53:15;2.90;99.90
24664;DHT22;12791;50.992;13.788;2023-03-11T02:55:41;3.10;99.90
24664;DHT22;12791;50.992;13.788;2023-03-11T02:58:08;2.40;99.90
24664;DHT22;12791;50.992;13.788;2023-03-11T03:00:35;2.70;99.90
24664;DHT22;12791;50.992;13.788;2023-03-11T03:03:04;2.30;99.90
24664;DHT22;12791;50.992;13.788;2023-03-11T03:05:31;2.50;99.90
24664;DHT22;12791;50.992;13.788;2023-03-11T03:07:57;2.90;99.90
24664;DHT22;12791;50.992;13.788;2023-03-11T03:10:24;2.30;99.90
24664;DHT22;12791;50.992;13.788;2023-03-11T03:12:50;2.60;99.90
24664;DHT22;12791;50.992;13.788;2023-03-11T03:15:17;2.70;99.90
24664;DHT22;12791;50.992;13.788;2023-03-11T03:17:44;2.70;99.90
24664;DHT22;12791;50.992;13.788;2023-03-11T03:20:12;2.60;99.90
24664;DHT22;12791;50.992;13.788;2023-03-11T03:22:40;2.50;99.90
24664;DHT22;12791;50.992;13.788;2023-03-11T03:25:08;2.80;99.90
24664;DHT22;12791;50.992;13.788;2023-03-11T03:27:36;2.50;99.90
24664;DHT22;12791;50.992;13.788;2023-03-11T03:30:04;2.50;99.90
24664;DHT22;12791;50.992;13.788;2023-03-11T03:32:31;2.50;99.90
24664;DHT22;12791;50.992;13.788;2023-03-11T03:34:57;2.70;99.90
24664;DHT22;12791;50.992;13.788;2023-03-11T03:37:26;2.40;99.90
24664;DHT22;12791;50.992;13.788;2023-03-11T03:39:54;2.50;99.90
24664;DHT22;12791;50.992;13.788;2023-03-11T03:42:20;2.60;99.90
24664;DHT22;12791;50.992;13.788;2023-03-11T03:44:49;2.40;99.90
24664;DHT22;12791;50.992;13.788;2023-03-11T03:47:16;1.70;99.90
24664;DHT22;12791;50.992;13.788;2023-03-11T03:49:42;2.40;99.90
24664;DHT22;12791;50.992;13.788;2023-03-11T03:52:09;2.10;99.90
24664;DHT22;12791;50.992;13.788;2023-03-11T03:54:37;1.80;99.90
24664;DHT22;12791;50.992;13.788;2023-03-11T03:57:04;2.20;99.90
24664;DHT22;12791;50.992;13.788;2023-03-11T03:59:30;2.00;99.90
24664;DHT22;12791;50.992;13.788;2023-03-11T04:01:57;2.00;99.90
24664;DHT22;12791;50.992;13.788;2023-03-11T04:04:24;2.10;99.90
24664;DHT22;12791;50.992;13.788;2023-03-11T04:06:50;2.30;99.90
24664;DHT22;12791;50.992;13.788;2023-03-11T04:09:17;2.10;99.90
24664;DHT22;12791;50.992;13.788;2023-03-11T04:11:45;2.10;99.90
24664;DHT22;12791;50.992;13.788;2023-03-11T04:14:12;2.10;99.90
24664;DHT22;12791;50.992;13.788;2023-03-11T04:16:38;2.10;99.90
24664;DHT22;12791;50.992;13.788;2023-03-11T04:19:05;2.00;99.90
24664;DHT22;12791;50.992;13.788;2023-03-11T04:21:32;2.00;99.90
24664;DHT22;12791;50.992;13.788;2023-03-11T04:23:59;2.10;99.90
24664;DHT22;12791;50.992;13.788;2023-03-11T04:26:25;1.80;99.90
24664;DHT22;12791;50.992;13.788;2023-03-11T04:28:54;1.70;99.90
24664;DHT22;12791;50.992;13.788;2023-03-11T04:31:20;1.90;99.90
24664;DHT22;12791;50.992;13.788;2023-03-11T04:33:47;1.90;99.90
24664;DHT22;12791;50.992;13.788;2023-03-11T04:36:13;1.80;99.90
24664;DHT22;12791;50.992;13.788;2023-03-11T04:38:40;1.80;99.90
24664;DHT22;12791;50.992;13.788;2023-03-11T04:41:07;1.30;99.90
24664;DHT22;12791;50.992;13.788;2023-03-11T04:43:33;2.00;99.90
24664;DHT22;12791;50.992;13.788;2023-03-11T04:46:01;1.90;99.90
24664;DHT22;12791;50.992;13.788;2023-03-11T04:48:28;2.00;99.90
24664;DHT22;12791;50.992;13.788;2023-03-11T04:50:55;1.80;99.90
24664;DHT22;12791;50.992;13.788;2023-03-11T04:53:22;2.00;99.90
24664;DHT22;12791;50.992;13.788;2023-03-11T04:55:48;1.80;99.90
24664;DHT22;12791;50.992;13.788;2023-03-11T04:58:15;1.80;99.90
24664;DHT22;12791;50.992;13.788;2023-03-11T05:00:41;2.00;99.90
24664;DHT22;12791;50.992;13.788;2023-03-11T05:03:09;1.80;99.90
24664;DHT22;12791;50.992;13.788;2023-03-11T05:05:36;2.00;99.90
24664;DHT22;12791;50.992;13.788;2023-03-11T05:08:03;1.60;99.90
24664;DHT22;12791;50.992;13.788;2023-03-11T05:10:30;1.90;99.90
24664;DHT22;12791;50.992;13.788;2023-03-11T05:12:57;2.20;99.90
24664;DHT22;12791;50.992;13.788;2023-03-11T05:15:23;2.00;99.90
24664;DHT22;12791;50.992;13.788;2023-03-11T05:17:50;1.90;99.90
24664;DHT22;12791;50.992;13.788;2023-03-11T05:20:18;1.90;99.90
24664;DHT22;12791;50.992;13.788;2023-03-11T05:22:45;2.10;99.90
24664;DHT22;12791;50.992;13.788;2023-03-11T05:25:12;1.90;99.90
24664;DHT22;12791;50.992;13.788;2023-03-11T05:27:38;1.90;99.90
24664;DHT22;12791;50.992;13.788;2023-03-11T05:30:06;2.00;99.90
24664;DHT22;12791;50.992;13.788;2023-03-11T05:32:33;1.80;99.90
24664;DHT22;12791;50.992;13.788;2023-03-11T05:34:59;1.80;99.90
24664;DHT22;12791;50.992;13.788;2023-03-11T05:37:29;1.90;99.90
24664;DHT22;12791;50.992;13.788;2023-03-11T05:39:56;2.00;99.90
24664;DHT22;12791;50.992;13.788;2023-03-11T05:42:23;1.90;99.90
24664;DHT22;12791;50.992;13.788;2023-03-11T05:44:49;2.00;99.90
24664;DHT22;12791;50.992;13.788;2023-03-11T05:47:16;1.80;99.90
24664;DHT22;12791;50.992;13.788;2023-03-11T05:49:45;2.10;99.90
24664;DHT22;12791;50.992;13.788;2023-03-11T05:52:12;1.90;99.90
24664;DHT22;12791;50.992;13.788;2023-03-11T05:54:40;1.90;99.90
24664;DHT22;12791;50.992;13.788;2023-03-11T05:57:06;2.10;99.90
24664;DHT22;12791;50.992;13.788;2023-03-11T05:59:33;2.20;99.90
24664;DHT22;12791;50.992;13.788;2023-03-11T06:02:02;1.90;99.90
24664;DHT22;12791;50.992;13.788;2023-03-11T06:04:28;1.80;99.90
24664;DHT22;12791;50.992;13.788;2023-03-11T06:06:55;2.00;99.90
24664;DHT22;12791;50.992;13.788;2023-03-11T06:09:21;1.80;99.90
24664;DHT22;12791;50.992;13.788;2023-03-11T06:11:49;1.40;99.90
24664;DHT22;12791;50.992;13.788;2023-03-11T06:14:16;1.80;99.90
24664;DHT22;12791;50.992;13.788;2023-03-11T06:16:43;1.80;99.90
24664;DHT22;12791;50.992;13.788;2023-03-11T06:19:09;1.80;99.90
24664;DHT22;12791;50.992;13.788;2023-03-11T06:21:36;2.00;99.90
24664;DHT22;12791;50.992;13.788;2023-03-11T06:24:03;1.70;99.90
24664;DHT22;12791;50.992;13.788;2023-03-11T06:26:30;1.80;99.90
24664;DHT22;12791;50.992;13.788;2023-03-11T06:28:58;2.00;99.90
24664;DHT22;12791;50.992;13.788;2023-03-11T06:31:26;2.00;99.90
24664;DHT22;12791;50.992;13.788;2023-03-11T06:33:54;1.90;99.90
24664;DHT22;12791;50.992;13.788;2023-03-11T06:36:21;1.90;99.90
24664;DHT22;12791;50.992;13.788;2023-03-11T06:38:49;2.20;99.90
24664;DHT22;12791;50.992;13.788;2023-03-11T06:41:16;2.00;99.90
24664;DHT22;12791;50.992;13.788;2023-03-11T06:43:43;2.10;99.90
24664;DHT22;12791;50.992;13.788;2023-03-11T06:46:12;2.00;99.90
24664;DHT22;12791;50.992;13.788;2023-03-11T06:48:40;2.00;99.90
24664;DHT22;12791;50.992;13.788;2023-03-11T06:51:07;2.00;99.90
24664;DHT22;12791;50.992;13.788;2023-03-11T06:53:33;1.70;99.90
24664;DHT22;12791;50.992;13.788;2023-03-11T06:56:02;2.00;99.90
24664;DHT22;12791;50.992;13.788;2023-03-11T06:58:31;2.00;99.90
24664;DHT22;12791;50.992;13.788;2023-03-11T07:01:01;2.10;99.90
24664;DHT22;12791;50.992;13.788;2023-03-11T07:03:30;2.00;99.90
24664;DHT22;12791;50.992;13.788;2023-03-11T07:05:57;1.70;99.90
24664;DHT22;12791;50.992;13.788;2023-03-11T07:08:24;2.20;99.90
24664;DHT22;12791;50.992;13.788;2023-03-11T07:11:01;1.90;99.90
24664;DHT22;12791;50.992;13.788;2023-03-11T07:13:29;2.10;99.90
24664;DHT22;12791;50.992;13.788;2023-03-11T07:15:59;1.60;99.90
24664;DHT22;12791;50.992;13.788;2023-03-11T07:18:26;2.00;99.90
24664;DHT22;12791;50.992;13.788;2023-03-11T07:20:54;1.90;99.90
24664;DHT22;12791;50.992;13.788;2023-03-11T07:23:21;1.90;99.90
24664;DHT22;12791;50.992;13.788;2023-03-11T07:25:48;2.10;99.90
24664;DHT22;12791;50.992;13.788;2023-03-11T07:28:16;1.90;99.90
24664;DHT22;12791;50.992;13.788;2023-03-11T07:30:42;2.00;99.90
24664;DHT22;12791;50.992;13.788;2023-03-11T07:33:11;2.00;99.90
24664;DHT22;12791;50.992;13.788;2023-03-11T07:35:37;1.90;99.90
24664;DHT22;12791;50.992;13.788;2023-03-11T07:38:05;2.00;99.90
24664;DHT22;12791;50.992;13.788;2023-03-11T07:40:32;2.00;99.90
24664;DHT22;12791;50.992;13.788;2023-03-11T07:42:59;1.90;99.90
24664;DHT22;12791;50.992;13.788;2023-03-11T07:45:25;1.60;99.90
24664;DHT22;12791;50.992;13.788;2023-03-11T07:47:52;1.90;99.90
24664;DHT22;12791;50.992;13.788;2023-03-11T07:50:19;2.10;99.90
24664;DHT22;12791;50.992;13.788;2023-03-11T07:52:47;2.10;99.90
24664;DHT22;12791;50.992;13.788;2023-03-11T07:55:15;2.00;99.90
24664;DHT22;12791;50.992;13.788;2023-03-11T07:57:42;2.20;99.90
24664;DHT22;12791;50.992;13.788;2023-03-11T08:00:10;1.40;99.90
24664;DHT22;12791;50.992;13.788;2023-03-11T08:02:37;2.00;99.90
24664;DHT22;12791;50.992;13.788;2023-03-11T08:05:04;1.50;99.90
24664;DHT22;12791;50.992;13.788;2023-03-11T08:07:31;1.90;99.90
24664;DHT22;12791;50.992;13.788;2023-03-11T08:09:57;2.10;99.90
24664;DHT22;12791;50.992;13.788;2023-03-11T08:12:25;2.00;99.90
24664;DHT22;12791;50.992;13.788;2023-03-11T08:14:52;2.10;99.90
24664;DHT22;12791;50.992;13.788;2023-03-11T08:17:18;2.10;99.90
24664;DHT22;12791;50.992;13.788;2023-03-11T08:19:45;2.00;99.90
24664;DHT22;12791;50.992;13.788;2023-03-11T08:22:14;2.00;99.90
24664;DHT22;12791;50.992;13.788;2023-03-11T08:24:40;2.20;99.90
24664;DHT22;12791;50.992;13.788;2023-03-11T08:27:07;2.00;99.90
24664;DHT22;12791;50.992;13.788;2023-03-11T08:29:35;2.10;99.90
24664;DHT22;12791;50.992;13.788;2023-03-11T08:32:02;2.40;99.90
24664;DHT22;12791;50.992;13.788;2023-03-11T08:34:28;2.10;99.90
24664;DHT22;12791;50.992;13.788;2023-03-11T08:36:55;2.10;99.90
24664;DHT22;12791;50.992;13.788;2023-03-11T08:39:22;2.20;99.90
24664;DHT22;12791;50.992;13.788;2023-03-11T08:41:48;2.20;99.90
24664;DHT22;12791;50.992;13.788;2023-03-11T08:44:15;2.20;99.90
24664;DHT22;12791;50.992;13.788;2023-03-11T08:46:43;2.10;99.90
24664;DHT22;12791;50.992;13.788;2023-03-11T08:49:10;2.40;99.90
24664;DHT22;12791;50.992;13.788;2023-03-11T08:51:36;2.40;99.90
24664;DHT22;12791;50.992;13.788;2023-03-11T08:54:03;2.30;99.90
24664;DHT22;12791;50.992;13.788;2023-03-11T08:56:30;2.20;99.90
24664;DHT22;12791;50.992;13.788;2023-03-11T08:58:57;2.30;99.90
24664;DHT22;12791;50.992;13.788;2023-03-11T09:01:24;2.40;99.90
24664;DHT22;12791;50.992;13.788;2023-03-11T09:03:52;2.30;99.90
24664;DHT22;12791;50.992;13.788;2023-03-11T09:06:19;1.80;99.90
24664;DHT22;12791;50.992;13.788;2023-03-11T09:08:46;2.30;99.90
24664;DHT22;12791;50.992;13.788;2023-03-11T09:11:13;2.40;99.90
24664;DHT22;12791;50.992;13.788;2023-03-11T09:13:40;2.40;99.90
24664;DHT22;12791;50.992;13.788;2023-03-11T09:16:08;2.00;99.90
24664;DHT22;12791;50.992;13.788;2023-03-11T09:18:37;2.30;99.90
24664;DHT22;12791;50.992;13.788;2023-03-11T09:21:05;2.50;99.90
24664;DHT22;12791;50.992;13.788;2023-03-11T09:23:33;2.60;99.90
24664;DHT22;12791;50.992;13.788;2023-03-11T09:26:00;2.30;99.90
24664;DHT22;12791;50.992;13.788;2023-03-11T09:28:26;2.40;99.90
24664;DHT22;12791;50.992;13.788;2023-03-11T09:30:53;2.30;99.90
24664;DHT22;12791;50.992;13.788;2023-03-11T09:33:20;2.00;99.90
24664;DHT22;12791;50.992;13.788;2023-03-11T09:35:46;1.80;99.90
24664;DHT22;12791;50.992;13.788;2023-03-11T09:38:14;2.30;99.90
24664;DHT22;12791;50.992;13.788;2023-03-11T09:40:51;2.30;99.90
24664;DHT22;12791;50.992;13.788;2023-03-11T09:43:30;2.30;99.90
24664;DHT22;12791;50.992;13.788;2023-03-11T09:46:05;2.40;99.90
24664;DHT22;12791;50.992;13.788;2023-03-11T09:48:44;2.30;99.90
24664;DHT22;12791;50.992;13.788;2023-03-11T09:51:16;2.10;99.90
24664;DHT22;12791;50.992;13.788;2023-03-11T09:53:51;2.20;99.90
24664;DHT22;12791;50.992;13.788;2023-03-11T09:56:21;2.20;99.90
24664;DHT22;12791;50.992;13.788;2023-03-11T09:58:49;2.40;99.90
24664;DHT22;12791;50.992;13.788;2023-03-11T10:01:21;2.40;99.90
24664;DHT22;12791;50.992;13.788;2023-03-11T10:03:51;2.40;99.90
24664;DHT22;12791;50.992;13.788;2023-03-11T10:06:21;2.50;99.90
24664;DHT22;12791;50.992;13.788;2023-03-11T10:08:53;2.50;99.90
24664;DHT22;12791;50.992;13.788;2023-03-11T10:11:32;2.40;99.90
24664;DHT22;12791;50.992;13.788;2023-03-11T10:14:12;2.40;99.90
24664;DHT22;12791;50.992;13.788;2023-03-11T10:16:46;2.40;99.90
24664;DHT22;12791;50.992;13.788;2023-03-11T10:19:20;2.50;99.90
24664;DHT22;12791;50.992;13.788;2023-03-11T10:21:54;2.30;99.90
24664;DHT22;12791;50.992;13.788;2023-03-11T10:24:41;2.30;99.90
24664;DHT22;12791;50.992;13.788;2023-03-11T10:27:15;2.50;99.90
24664;DHT22;12791;50.992;13.788;2023-03-11T10:29:49;2.40;99.90
24664;DHT22;12791;50.992;13.788;2023-03-11T10:32:20;2.40;99.90
24664;DHT22;12791;50.992;13.788;2023-03-11T10:34:52;2.50;99.90
24664;DHT22;12791;50.992;13.788;2023-03-11T10:37:24;2.70;99.90
24664;DHT22;12791;50.992;13.788;2023-03-11T10:39:52;2.60;99.90
24664;DHT22;12791;50.992;13.788;2023-03-11T10:42:22;2.60;99.90
24664;DHT22;12791;50.992;13.788;2023-03-11T10:44:50;2.70;99.90
24664;DHT22;12791;50.992;13.788;2023-03-11T10:47:18;2.50;99.90
24664;DHT22;12791;50.992;13.788;2023-03-11T10:49:45;2.60;99.90
24664;DHT22;12791;50.992;13.788;2023-03-11T10:52:12;2.70;99.90
24664;DHT22;12791;50.992;13.788;2023-03-11T10:54:40;2.70;99.90
24664;DHT22;12791;50.992;13.788;2023-03-11T10:57:22;2.90;99.90
24664;DHT22;12791;50.992;13.788;2023-03-11T10:59:51;3.20;99.90
24664;DHT22;12791;50.992;13.788;2023-03-11T11:02:22;3.10;99.90
24664;DHT22;12791;50.992;13.788;2023-03-11T11:05:04;2.90;99.90
24664;DHT22;12791;50.992;13.788;2023-03-11T11:07:33;3.00;99.90
24664;DHT22;12791;50.992;13.788;2023-03-11T11:10:17;3.40;99.90
24664;DHT22;12791;50.992;13.788;2023-03-11T11:12:56;3.10;99.90
24664;DHT22;12791;50.992;13.788;2023-03-11T11:15:26;3.00;99.90
24664;DHT22;12791;50.992;13.788;2023-03-11T11:17:56;2.90;99.90
24664;DHT22;12791;50.992;13.788;2023-03-11T11:20:24;2.90;99.90
24664;DHT22;12791;50.992;13.788;2023-03-11T11:22:54;3.00;99.90
24664;DHT22;12791;50.992;13.788;2023-03-11T11:25:31;3.10;99.90
24664;DHT22;12791;50.992;13.788;2023-03-11T11:28:02;2.80;99.90
24664;DHT22;12791;50.992;13.788;2023-03-11T11:30:30;2.90;99.90
24664;DHT22;12791;50.992;13.788;2023-03-11T11:33:20;2.80;99.90
24664;DHT22;12791;50.992;13.788;2023-03-11T11:35:49;2.80;99.90
24664;DHT22;12791;50.992;13.788;2023-03-11T11:38:16;2.90;99.90
24664;DHT22;12791;50.992;13.788;2023-03-11T11:40:44;3.00;99.90
24664;DHT22;12791;50.992;13.788;2023-03-11T11:43:15;3.00;99.90
24664;DHT22;12791;50.992;13.788;2023-03-11T11:45:45;2.70;99.90
24664;DHT22;12791;50.992;13.788;2023-03-11T11:48:18;3.00;99.90
24664;DHT22;12791;50.992;13.788;2023-03-11T11:50:50;3.10;99.90
24664;DHT22;12791;50.992;13.788;2023-03-11T11:53:27;3.20;99.90
24664;DHT22;12791;50.992;13.788;2023-03-11T11:55:56;3.10;99.90
24664;DHT22;12791;50.992;13.788;2023-03-11T11:58:23;3.10;99.90
24664;DHT22;12791;50.992;13.788;2023-03-11T12:01:03;3.20;99.90
24664;DHT22;12791;50.992;13.788;2023-03-11T12:04:01;3.00;99.90
24664;DHT22;12791;50.992;13.788;2023-03-11T12:06:31;3.00;99.90
24664;DHT22;12791;50.992;13.788;2023-03-11T12:09:08;2.90;99.90
24664;DHT22;12791;50.992;13.788;2023-03-11T12:11:40;3.10;99.90
24664;DHT22;12791;50.992;13.788;2023-03-11T12:14:16;3.10;99.90
24664;DHT22;12791;50.992;13.788;2023-03-11T12:16:51;3.30;99.90
24664;DHT22;12791;50.992;13.788;2023-03-11T12:19:33;3.30;99.90
24664;DHT22;12791;50.992;13.788;2023-03-11T12:25:08;3.30;99.90
24664;DHT22;12791;50.992;13.788;2023-03-11T12:27:41;3.30;99.90
24664;DHT22;12791;50.992;13.788;2023-03-11T12:30:14;3.40;99.90
24664;DHT22;12791;50.992;13.788;2023-03-11T12:32:45;3.30;99.90
24664;DHT22;12791;50.992;13.788;2023-03-11T12:35:20;3.10;99.90
24664;DHT22;12791;50.992;13.788;2023-03-11T12:37:55;3.30;99.90
24664;DHT22;12791;50.992;13.788;2023-03-11T12:47:12;3.20;99.90
24664;DHT22;12791;50.992;13.788;2023-03-11T12:49:43;3.20;99.90
24664;DHT22;12791;50.992;13.788;2023-03-11T12:52:20;3.20;99.90
24664;DHT22;12791;50.992;13.788;2023-03-11T12:54:48;3.40;99.90
24664;DHT22;12791;50.992;13.788;2023-03-11T12:57:30;3.10;99.90
24664;DHT22;12791;50.992;13.788;2023-03-11T13:00:14;3.20;99.90
24664;DHT22;12791;50.992;13.788;2023-03-11T13:05:53;3.20;99.90
24664;DHT22;12791;50.992;13.788;2023-03-11T13:08:21;3.10;99.90
24664;DHT22;12791;50.992;13.788;2023-03-11T13:10:50;3.10;99.90
24664;DHT22;12791;50.992;13.788;2023-03-11T13:13:35;3.00;99.90
24664;DHT22;12791;50.992;13.788;2023-03-11T13:16:35;3.00;99.90
24664;DHT22;12791;50.992;13.788;2023-03-11T13:19:35;3.10;99.90
24664;DHT22;12791;50.992;13.788;2023-03-11T13:25:30;2.90;99.90
24664;DHT22;12791;50.992;13.788;2023-03-11T13:30:50;2.70;99.90
24664;DHT22;12791;50.992;13.788;2023-03-11T13:33:32;2.70;99.90
24664;DHT22;12791;50.992;13.788;2023-03-11T13:36:10;2.50;99.90
24664;DHT22;12791;50.992;13.788;2023-03-11T13:39:07;2.70;99.90
24664;DHT22;12791;50.992;13.788;2023-03-11T13:41:41;2.80;99.90
24664;DHT22;12791;50.992;13.788;2023-03-11T13:44:15;2.80;99.90
24664;DHT22;12791;50.992;13.788;2023-03-11T13:46:47;3.00;99.90
24664;DHT22;12791;50.992;13.788;2023-03-11T13:49:24;2.70;99.90
24664;DHT22;12791;50.992;13.788;2023-03-11T13:51:54;2.60;99.90
24664;DHT22;12791;50.992;13.788;2023-03-11T13:54:32;2.90;99.90
24664;DHT22;12791;50.992;13.788;2023-03-11T13:57:02;2.70;99.90
24664;DHT22;12791;50.992;13.788;2023-03-11T13:59:31;2.80;99.90
24664;DHT22;12791;50.992;13.788;2023-03-11T14:01:59;2.80;99.90
24664;DHT22;12791;50.992;13.788;2023-03-11T14:04:28;2.80;99.90
24664;DHT22;12791;50.992;13.788;2023-03-11T14:06:57;3.00;99.90
24664;DHT22;12791;50.992;13.788;2023-03-11T14:09:25;2.80;99.90
24664;DHT22;12791;50.992;13.788;2023-03-11T14:11:53;2.80;99.90
24664;DHT22;12791;50.992;13.788;2023-03-11T14:14:32;3.00;99.90
24664;DHT22;12791;50.992;13.788;2023-03-11T14:17:01;2.90;99.90
24664;DHT22;12791;50.992;13.788;2023-03-11T14:19:28;3.10;99.90
24664;DHT22;12791;50.992;13.788;2023-03-11T14:21:56;3.00;99.90
24664;DHT22;12791;50.992;13.788;2023-03-11T14:24:26;2.80;99.90
24664;DHT22;12791;50.992;13.788;2023-03-11T14:26:55;2.80;99.90
24664;DHT22;12791;50.992;13.788;2023-03-11T14:29:29;3.10;99.90
24664;DHT22;12791;50.992;13.788;2023-03-11T14:31:56;2.80;99.90
24664;DHT22;12791;50.992;13.788;2023-03-11T14:34:25;2.90;99.90
24664;DHT22;12791;50.992;13.788;2023-03-11T14:36:53;2.90;99.90
24664;DHT22;12791;50.992;13.788;2023-03-11T14:39:27;3.00;99.90
24664;DHT22;12791;50.992;13.788;2023-03-11T14:41:57;3.10;99.90
24664;DHT22;12791;50.992;13.788;2023-03-11T14:44:25;3.10;99.90
24664;DHT22;12791;50.992;13.788;2023-03-11T14:46:59;3.00;99.90
24664;DHT22;12791;50.992;13.788;2023-03-11T14:49:28;3.10;99.90
24664;DHT22;12791;50.992;13.788;2023-03-11T14:51:58;3.10;99.90
24664;DHT22;12791;50.992;13.788;2023-03-11T14:54:29;2.80;99.90
24664;DHT22;12791;50.992;13.788;2023-03-11T14:57:01;2.80;99.90
24664;DHT22;12791;50.992;13.788;2023-03-11T14:59:30;3.30;99.90
24664;DHT22;12791;50.992;13.788;2023-03-11T15:02:11;3.20;99.90
24664;DHT22;12791;50.992;13.788;2023-03-11T15:04:48;3.20;99.90
24664;DHT22;12791;50.992;13.788;2023-03-11T15:07:16;3.20;99.90
24664;DHT22;12791;50.992;13.788;2023-03-11T15:09:44;3.20;99.90
24664;DHT22;12791;50.992;13.788;2023-03-11T15:12:29;3.20;99.90
24664;DHT22;12791;50.992;13.788;2023-03-11T15:14:56;3.20;99.90
24664;DHT22;12791;50.992;13.788;2023-03-11T15:17:24;3.10;99.90
24664;DHT22;12791;50.992;13.788;2023-03-11T15:19:53;3.20;99.90
24664;DHT22;12791;50.992;13.788;2023-03-11T15:22:25;3.00;99.90
24664;DHT22;12791;50.992;13.788;2023-03-11T15:24:55;3.30;99.90
24664;DHT22;12791;50.992;13.788;2023-03-11T15:27:29;3.20;99.90
24664;DHT22;12791;50.992;13.788;2023-03-11T15:29:56;3.20;99.90
24664;DHT22;12791;50.992;13.788;2023-03-11T15:32:32;3.00;99.90
24664;DHT22;12791;50.992;13.788;2023-03-11T15:35:01;3.10;99.90
24664;DHT22;12791;50.992;13.788;2023-03-11T15:37:29;3.00;99.90
24664;DHT22;12791;50.992;13.788;2023-03-11T15:40:05;3.10;99.90
24664;DHT22;12791;50.992;13.788;2023-03-11T15:42:35;3.10;99.90
24664;DHT22;12791;50.992;13.788;2023-03-11T15:45:17;3.30;99.90
24664;DHT22;12791;50.992;13.788;2023-03-11T15:47:44;3.10;99.90
24664;DHT22;12791;50.992;13.788;2023-03-11T15:50:17;3.10;99.90
24664;DHT22;12791;50.992;13.788;2023-03-11T15:52:45;3.30;99.90
24664;DHT22;12791;50.992;13.788;2023-03-11T15:55:14;3.10;99.90
24664;DHT22;12791;50.992;13.788;2023-03-11T15:57:40;3.10;99.90
24664;DHT22;12791;50.992;13.788;2023-03-11T16:00:16;3.30;99.90
24664;DHT22;12791;50.992;13.788;2023-03-11T16:02:44;3.30;99.90